Time;durP1;ratioP1;P1;durP2;ratioP2;P2;SDS_P1;SDS_P2;PMS_P1;PMS_P2;Temp;Humidity;BMP_temperature;BMP_pressure;BME280_temperature;BME280_humidity;BME280_pressure;Samples;Min_cycle;Max_cycle;Signal;HPM_P1;HPM_P2
2023/07/26 00:00:18;;;;;;;2.50;2.30;;;14.50;99.90;;;;;;5012617;28;20757;-85
2023/07/26 00:02:44;;;;;;;2.60;2.30;;;14.50;99.90;;;;;;5011668;28;20412;-84
2023/07/26 00:05:10;;;;;;;2.50;2.20;;;14.50;99.90;;;;;;5010595;28;20455;-84
2023/07/26 00:07:35;;;;;;;2.90;2.30;;;14.40;99.90;;;;;;5008861;28;20395;-85
2023/07/26 00:10:01;;;;;;;3.00;2.70;;;14.40;99.90;;;;;;5012027;28;20420;-84
2023/07/26 00:12:26;;;;;;;2.90;2.50;;;14.50;99.90;;;;;;5013457;28;20400;-84
2023/07/26 00:14:52;;;;;;;2.60;2.40;;;14.50;99.90;;;;;;5012786;28;20404;-84
2023/07/26 00:17:18;;;;;;;3.58;3.00;;;14.50;99.90;;;;;;5012184;28;20737;-84
2023/07/26 00:19:43;;;;;;;2.97;2.70;;;14.50;99.90;;;;;;5020850;28;20428;-84
2023/07/26 00:22:09;;;;;;;2.28;2.17;;;14.50;99.90;;;;;;5012247;28;20386;-84
2023/07/26 00:24:35;;;;;;;4.40;2.50;;;14.40;99.90;;;;;;5011211;28;20385;-84
2023/07/26 00:27:00;;;;;;;2.90;2.20;;;14.40;99.90;;;;;;5012339;28;20427;-84
2023/07/26 00:29:26;;;;;;;2.67;2.20;;;14.50;99.90;;;;;;5012174;28;20400;-84
2023/07/26 00:31:51;;;;;;;2.92;2.30;;;14.50;99.90;;;;;;5013790;28;20784;-84
2023/07/26 00:34:17;;;;;;;4.70;2.77;;;14.50;99.90;;;;;;5013449;28;20388;-84
2023/07/26 00:36:42;;;;;;;3.37;2.90;;;14.50;99.90;;;;;;5013443;28;20412;-84
2023/07/26 00:39:08;;;;;;;3.95;2.45;;;14.40;99.90;;;;;;5013428;28;20385;-84
2023/07/26 00:41:33;;;;;;;3.30;2.90;;;14.40;99.90;;;;;;5013649;28;20385;-85
2023/07/26 00:43:59;;;;;;;2.63;2.43;;;14.30;99.90;;;;;;5011226;28;20421;-84
2023/07/26 00:46:25;;;;;;;3.00;2.70;;;14.30;99.90;;;;;;5014735;28;20453;-85
2023/07/26 00:48:50;;;;;;;3.20;2.80;;;14.30;99.90;;;;;;5034727;28;20405;-84
2023/07/26 00:51:17;;;;;;;2.80;2.53;;;14.30;99.90;;;;;;5036039;28;20418;-83
2023/07/26 00:53:42;;;;;;;3.00;2.80;;;14.20;99.90;;;;;;5036494;28;20416;-83
2023/07/26 00:56:09;;;;;;;3.40;2.70;;;14.20;99.90;;;;;;5037343;28;20439;-84
2023/07/26 00:58:35;;;;;;;3.08;2.88;;;14.20;99.90;;;;;;5036179;28;20421;-84
2023/07/26 01:01:00;;;;;;;2.70;2.50;;;14.20;99.90;;;;;;5036697;28;20419;-84
2023/07/26 01:03:27;;;;;;;2.60;2.40;;;14.20;99.90;;;;;;5036398;28;20399;-84
2023/07/26 01:06:19;;;;;;;3.20;2.90;;;14.20;99.90;;;;;;5036331;28;20396;-84
2023/07/26 01:09:07;;;;;;;4.00;2.70;;;14.10;99.90;;;;;;5037022;28;20400;-84
2023/07/26 01:11:39;;;;;;;3.80;2.60;;;14.20;99.90;;;;;;5036078;28;20389;-84
2023/07/26 01:14:22;;;;;;;2.70;2.50;;;14.10;99.90;;;;;;5036104;28;20412;-83
2023/07/26 01:16:48;;;;;;;3.30;2.80;;;14.10;99.90;;;;;;5037059;28;20396;-85
2023/07/26 01:19:13;;;;;;;5.10;2.70;;;14.00;99.90;;;;;;5045960;28;20411;-85
2023/07/26 01:21:39;;;;;;;3.92;2.80;;;13.90;99.90;;;;;;5056389;28;20417;-84
2023/07/26 01:24:05;;;;;;;3.40;2.60;;;14.00;99.90;;;;;;5055993;28;20402;-83
2023/07/26 01:26:30;;;;;;;3.30;2.70;;;14.00;99.90;;;;;;5048165;28;20460;-83
2023/07/26 01:28:56;;;;;;;2.73;2.53;;;14.00;99.90;;;;;;5036094;28;20447;-84
2023/07/26 01:31:24;;;;;;;3.40;2.78;;;14.00;99.90;;;;;;5036046;28;20432;-84
2023/07/26 01:33:52;;;;;;;4.13;2.80;;;14.10;99.90;;;;;;5045826;23;20443;-85
2023/07/26 01:36:21;;;;;;;3.55;2.60;;;14.00;99.90;;;;;;4970585;28;20392;-82
2023/07/26 01:38:47;;;;;;;5.00;2.80;;;14.00;99.90;;;;;;4961281;28;20488;-81
2023/07/26 01:41:14;;;;;;;3.08;2.88;;;13.10;99.90;;;;;;4976536;28;20386;-81
2023/07/26 01:43:40;;;;;;;3.70;3.25;;;13.90;99.90;;;;;;4978973;28;20404;-81
2023/07/26 01:46:06;;;;;;;4.10;3.00;;;13.80;99.90;;;;;;4968706;28;20401;-83
2023/07/26 01:48:31;;;;;;;3.90;3.20;;;13.80;99.90;;;;;;4955740;28;20452;-84
2023/07/26 01:50:57;;;;;;;3.90;3.10;;;13.80;99.90;;;;;;4972489;28;20463;-84
2023/07/26 01:53:22;;;;;;;4.03;3.50;;;12.90;99.90;;;;;;4955611;28;20392;-84
2023/07/26 01:55:48;;;;;;;4.90;2.90;;;13.40;99.90;;;;;;4955494;28;20420;-84
2023/07/26 01:58:13;;;;;;;3.25;2.83;;;16.80;99.90;;;;;;4970999;28;20462;-83
2023/07/26 02:00:39;;;;;;;3.80;3.30;;;14.30;99.90;;;;;;4991735;28;20398;-84
2023/07/26 02:03:05;;;;;;;6.70;3.50;;;13.70;99.90;;;;;;4974665;28;20925;-85
2023/07/26 02:05:30;;;;;;;3.73;3.40;;;15.20;99.90;;;;;;5009470;28;20394;-83
2023/07/26 02:07:56;;;;;;;4.00;3.70;;;13.70;99.90;;;;;;4997689;28;20485;-83
2023/07/26 02:10:22;;;;;;;7.60;3.60;;;14.00;99.90;;;;;;4993905;28;20515;-82
2023/07/26 02:12:48;;;;;;;3.50;3.20;;;13.70;99.90;;;;;;4978786;28;20403;-82
2023/07/26 02:15:13;;;;;;;4.33;3.20;;;13.70;99.90;;;;;;4979013;28;20420;-82
2023/07/26 02:17:39;;;;;;;3.73;3.37;;;13.70;99.90;;;;;;4979085;28;20530;-83
2023/07/26 02:20:05;;;;;;;3.40;3.10;;;15.10;99.90;;;;;;5011550;28;20395;-82
2023/07/26 02:22:30;;;;;;;3.83;3.40;;;13.60;99.90;;;;;;4997031;28;20422;-82
2023/07/26 02:24:56;;;;;;;3.55;3.25;;;13.60;99.90;;;;;;4997096;28;20399;-82
2023/07/26 02:27:22;;;;;;;3.50;3.20;;;13.70;99.90;;;;;;4997667;28;20418;-82
2023/07/26 02:29:47;;;;;;;3.53;3.10;;;14.00;99.90;;;;;;4990916;28;20419;-83
2023/07/26 02:32:13;;;;;;;3.63;3.33;;;13.60;99.90;;;;;;4994985;28;20465;-83
2023/07/26 02:34:38;;;;;;;6.57;3.80;;;13.60;99.90;;;;;;4978167;28;20782;-82
2023/07/26 02:37:04;;;;;;;3.67;3.33;;;15.50;99.90;;;;;;4958011;28;20900;-84
2023/07/26 02:39:30;;;;;;;3.22;3.03;;;13.70;99.90;;;;;;4976717;28;20405;-82
2023/07/26 02:41:55;;;;;;;2.90;2.70;;;13.60;99.90;;;;;;4977878;28;20394;-84
2023/07/26 02:44:21;;;;;;;3.20;3.00;;;14.80;99.90;;;;;;4977411;28;20458;-84
2023/07/26 02:46:46;;;;;;;4.50;2.90;;;15.00;99.90;;;;;;4978855;28;20477;-84
2023/07/26 02:49:12;;;;;;;2.77;2.57;;;13.70;99.90;;;;;;4997075;28;20453;-85
2023/07/26 02:51:37;;;;;;;4.68;3.00;;;13.70;99.90;;;;;;4995837;28;20448;-85
2023/07/26 02:54:03;;;;;;;4.03;3.63;;;13.70;99.90;;;;;;4978404;28;20410;-85
2023/07/26 02:56:28;;;;;;;3.80;3.50;;;13.60;99.90;;;;;;4996293;28;20390;-83
2023/07/26 02:58:54;;;;;;;2.80;2.60;;;13.60;99.90;;;;;;4978990;28;20429;-84
2023/07/26 03:01:19;;;;;;;3.17;2.90;;;13.70;99.90;;;;;;4994892;28;20397;-84
2023/07/26 03:03:45;;;;;;;2.90;2.70;;;13.70;99.90;;;;;;4978296;28;20386;-85
2023/07/26 03:06:12;;;;;;;3.70;3.10;;;13.10;99.90;;;;;;4999372;28;20414;-84
2023/07/26 03:08:37;;;;;;;3.00;2.80;;;13.70;99.90;;;;;;4988122;28;20405;-84
2023/07/26 03:11:03;;;;;;;4.38;2.85;;;13.70;99.90;;;;;;4966083;28;20400;-83
2023/07/26 03:13:28;;;;;;;2.90;2.70;;;13.70;99.90;;;;;;4988514;28;20395;-85
2023/07/26 03:15:54;;;;;;;5.83;2.57;;;13.70;99.90;;;;;;4973121;28;20443;-84
2023/07/26 03:18:19;;;;;;;2.80;2.60;;;13.80;99.90;;;;;;4995520;28;20413;-83
2023/07/26 03:20:48;;;;;;;2.73;2.53;;;13.90;99.90;;;;;;5012779;28;20547;-81
2023/07/26 03:23:14;;;;;;;2.90;2.70;;;13.80;99.90;;;;;;5007808;28;20425;-84
2023/07/26 03:25:41;;;;;;;3.20;2.90;;;13.80;99.90;;;;;;4981613;28;20410;-84
2023/07/26 03:28:07;;;;;;;3.58;2.90;;;13.90;99.90;;;;;;4999465;28;20410;-84
2023/07/26 03:30:32;;;;;;;5.30;3.20;;;13.80;99.90;;;;;;4982425;28;20394;-85
2023/07/26 03:32:58;;;;;;;3.67;3.37;;;13.70;99.90;;;;;;4978764;28;20490;-84
2023/07/26 03:35:23;;;;;;;3.40;3.03;;;13.60;99.90;;;;;;4962839;28;20404;-82
2023/07/26 03:37:49;;;;;;;3.85;3.53;;;13.40;99.90;;;;;;4980328;28;20399;-84
2023/07/26 03:40:14;;;;;;;4.03;3.50;;;13.30;99.90;;;;;;4962611;28;20400;-84
2023/07/26 03:42:40;;;;;;;4.30;3.50;;;13.30;99.90;;;;;;4962037;28;20760;-85
2023/07/26 03:45:06;;;;;;;4.07;3.40;;;13.30;99.90;;;;;;4979683;28;20480;-83
2023/07/26 03:47:34;;;;;;;3.97;3.40;;;13.30;99.90;;;;;;4962176;28;20531;-84
2023/07/26 03:49:59;;;;;;;3.53;3.10;;;13.10;99.90;;;;;;4963618;28;20431;-84
2023/07/26 03:52:25;;;;;;;3.45;3.05;;;13.30;99.90;;;;;;4981594;28;21082;-84
2023/07/26 03:54:51;;;;;;;3.60;3.15;;;13.30;99.90;;;;;;4966535;28;20447;-83
2023/07/26 03:57:16;;;;;;;3.70;3.40;;;13.00;99.90;;;;;;4965134;28;20455;-84
2023/07/26 03:59:42;;;;;;;4.70;3.45;;;13.20;99.90;;;;;;4978438;28;20757;-83
2023/07/26 04:02:08;;;;;;;3.87;3.50;;;13.10;99.90;;;;;;4961717;28;20401;-85
2023/07/26 04:04:34;;;;;;;3.63;3.33;;;13.00;99.90;;;;;;4962420;28;20475;-84
2023/07/26 04:06:59;;;;;;;4.25;3.80;;;13.10;99.90;;;;;;4961915;28;20416;-84
2023/07/26 04:09:25;;;;;;;4.20;3.43;;;13.20;99.90;;;;;;4980094;28;20423;-84
2023/07/26 04:11:56;;;;;;;5.53;3.83;;;13.00;99.90;;;;;;4960746;28;20392;-84
2023/07/26 04:14:21;;;;;;;3.90;3.60;;;13.10;99.90;;;;;;4960962;28;20397;-84
2023/07/26 04:16:47;;;;;;;5.85;3.95;;;13.10;99.90;;;;;;4977114;28;20392;-84
2023/07/26 04:19:13;;;;;;;5.40;4.40;;;13.10;99.90;;;;;;4987196;28;20881;-83
2023/07/26 04:21:38;;;;;;;4.47;3.90;;;12.90;99.90;;;;;;4978649;28;20401;-83
2023/07/26 04:24:04;;;;;;;4.97;4.00;;;13.00;99.90;;;;;;4979071;28;20905;-84
2023/07/26 04:26:29;;;;;;;4.13;3.83;;;13.00;99.90;;;;;;4997036;28;20488;-84
2023/07/26 04:28:55;;;;;;;4.20;3.80;;;13.00;99.90;;;;;;4999375;28;20417;-84
2023/07/26 04:31:20;;;;;;;4.30;3.90;;;13.00;99.90;;;;;;4980764;28;20398;-84
2023/07/26 04:33:48;;;;;;;4.40;4.00;;;13.00;99.90;;;;;;4970162;28;20409;-84
2023/07/26 04:36:13;;;;;;;5.38;3.90;;;13.10;99.90;;;;;;4980106;28;20443;-85
2023/07/26 04:38:39;;;;;;;3.95;3.63;;;13.00;99.90;;;;;;4979990;28;20400;-84
2023/07/26 04:41:05;;;;;;;4.83;4.20;;;13.00;99.90;;;;;;4961573;28;20439;-81
2023/07/26 04:43:30;;;;;;;4.40;3.90;;;13.00;99.90;;;;;;4979074;28;20888;-82
2023/07/26 04:45:56;;;;;;;4.47;4.07;;;13.00;99.90;;;;;;4961008;28;21015;-84
2023/07/26 04:48:21;;;;;;;4.43;4.03;;;13.10;99.90;;;;;;4978302;28;20477;-83
2023/07/26 04:50:48;;;;;;;4.20;3.80;;;13.10;99.90;;;;;;4978380;28;20396;-82
2023/07/26 04:53:15;;;;;;;4.68;4.20;;;13.20;99.90;;;;;;4960905;28;20483;-84
2023/07/26 04:55:50;;;;;;;4.32;4.00;;;13.20;99.90;;;;;;4978343;28;20392;-83
2023/07/26 04:58:15;;;;;;;5.95;5.45;;;13.30;99.90;;;;;;4978619;28;20384;-85
2023/07/26 05:00:41;;;;;;;4.70;4.30;;;13.10;99.90;;;;;;4978367;28;20408;-84
2023/07/26 05:03:09;;;;;;;4.77;3.70;;;13.20;99.90;;;;;;4978835;28;20880;-84
2023/07/26 05:05:35;;;;;;;4.10;3.80;;;13.30;99.90;;;;;;4961483;28;20392;-84
2023/07/26 05:08:01;;;;;;;4.80;4.00;;;13.30;99.90;;;;;;4960695;28;20408;-83
2023/07/26 05:10:27;;;;;;;4.70;4.07;;;13.20;99.90;;;;;;4960909;28;20452;-82
2023/07/26 05:12:53;;;;;;;3.70;3.40;;;13.30;99.90;;;;;;4960829;28;20447;-83
2023/07/26 05:15:19;;;;;;;4.00;3.60;;;13.30;99.90;;;;;;4962467;28;20400;-82
2023/07/26 05:17:45;;;;;;;4.47;3.57;;;13.40;99.90;;;;;;4962679;28;20396;-83
2023/07/26 05:20:11;;;;;;;7.57;2.92;;;13.30;99.90;;;;;;4982918;28;20396;-82
2023/07/26 05:22:37;;;;;;;3.15;2.85;;;13.80;99.90;;;;;;4978596;28;20419;-81
2023/07/26 05:25:03;;;;;;;3.78;3.38;;;13.80;99.90;;;;;;4978415;28;20392;-82
2023/07/26 05:27:28;;;;;;;3.10;2.78;;;13.90;99.90;;;;;;4960544;28;20772;-83
2023/07/26 05:29:54;;;;;;;3.40;2.80;;;13.90;99.90;;;;;;4959184;28;20423;-83
2023/07/26 05:32:20;;;;;;;5.30;3.00;;;13.90;99.90;;;;;;4960402;28;20809;-82
2023/07/26 05:34:45;;;;;;;3.22;2.92;;;13.90;99.90;;;;;;4980005;28;20876;-83
2023/07/26 05:37:11;;;;;;;3.40;3.10;;;14.00;99.90;;;;;;4962076;28;20473;-83
2023/07/26 05:39:37;;;;;;;3.03;2.73;;;14.00;99.90;;;;;;4959686;28;20407;-82
2023/07/26 05:42:02;;;;;;;3.65;2.60;;;14.00;99.90;;;;;;4977313;28;20392;-83
2023/07/26 05:44:28;;;;;;;2.50;2.30;;;14.00;99.90;;;;;;4960159;28;20494;-83
2023/07/26 05:46:53;;;;;;;4.00;3.30;;;14.00;99.90;;;;;;4960742;28;20412;-83
2023/07/26 05:49:19;;;;;;;3.33;2.85;;;14.10;99.90;;;;;;4978787;28;20888;-83
2023/07/26 05:51:44;;;;;;;3.17;2.90;;;14.00;99.90;;;;;;4977061;28;20443;-82
2023/07/26 05:54:10;;;;;;;3.73;2.60;;;13.90;99.90;;;;;;4977094;28;20464;-83
2023/07/26 05:56:36;;;;;;;3.33;2.90;;;14.00;99.90;;;;;;4960873;28;20396;-82
2023/07/26 05:59:01;;;;;;;3.15;2.78;;;14.10;99.90;;;;;;4957881;28;20388;-83
2023/07/26 06:01:27;;;;;;;3.33;2.60;;;14.20;99.90;;;;;;4975214;28;20384;-83
2023/07/26 06:03:53;;;;;;;3.13;2.67;;;14.20;99.90;;;;;;4959523;28;20384;-83
2023/07/26 06:06:19;;;;;;;3.35;2.70;;;14.20;99.90;;;;;;4960448;28;20407;-84
2023/07/26 06:08:44;;;;;;;3.30;3.00;;;14.20;99.90;;;;;;4959120;28;20408;-83
2023/07/26 06:11:10;;;;;;;3.40;2.60;;;15.50;99.90;;;;;;4977229;28;20895;-81
2023/07/26 06:13:35;;;;;;;4.67;2.90;;;14.20;99.90;;;;;;4975770;28;20395;-81
2023/07/26 06:16:01;;;;;;;2.90;2.70;;;14.20;99.90;;;;;;4998123;28;20474;-83
2023/07/26 06:18:27;;;;;;;4.35;2.88;;;14.00;99.90;;;;;;4981185;28;20460;-82
2023/07/26 06:20:52;;;;;;;3.13;2.80;;;14.10;99.90;;;;;;4974077;28;20447;-83
2023/07/26 06:23:18;;;;;;;3.90;3.03;;;14.10;99.90;;;;;;4974217;28;20416;-82
2023/07/26 06:25:44;;;;;;;3.33;3.13;;;14.00;99.90;;;;;;4979464;28;20399;-82
2023/07/26 06:28:09;;;;;;;2.90;2.70;;;13.90;99.90;;;;;;4975969;28;20481;-83
2023/07/26 06:30:35;;;;;;;3.40;2.60;;;13.50;99.90;;;;;;4958856;28;20431;-84
2023/07/26 06:33:01;;;;;;;2.65;2.45;;;14.10;99.90;;;;;;4973950;28;20400;-83
2023/07/26 06:35:26;;;;;;;2.70;2.30;;;14.00;99.90;;;;;;4973519;28;20479;-84
2023/07/26 06:37:52;;;;;;;2.47;2.27;;;14.00;99.90;;;;;;4956131;28;20433;-83
2023/07/26 06:40:17;;;;;;;2.25;2.05;;;14.10;99.90;;;;;;4972997;28;20387;-84
2023/07/26 06:42:43;;;;;;;2.53;2.33;;;14.20;99.90;;;;;;4954635;28;20400;-82
2023/07/26 06:45:09;;;;;;;2.75;2.25;;;14.10;99.90;;;;;;4972642;28;20415;-83
2023/07/26 06:47:35;;;;;;;2.55;2.30;;;14.10;99.90;;;;;;4973566;28;20923;-83
2023/07/26 06:50:00;;;;;;;3.33;2.50;;;14.20;99.90;;;;;;4973619;28;20447;-82
2023/07/26 06:52:29;;;;;;;2.80;2.60;;;14.20;99.90;;;;;;4973491;28;20474;-84
2023/07/26 06:54:55;;;;;;;3.17;2.88;;;14.30;99.90;;;;;;4973871;28;20395;-83
2023/07/26 06:57:20;;;;;;;4.60;2.63;;;15.10;99.90;;;;;;4975191;28;20475;-82
2023/07/26 06:59:46;;;;;;;3.40;3.10;;;14.20;99.90;;;;;;4958111;28;20483;-84
2023/07/26 07:02:11;;;;;;;2.10;2.00;;;14.20;99.90;;;;;;4974946;28;20884;-84
2023/07/26 07:04:37;;;;;;;2.17;1.97;;;14.20;99.90;;;;;;4957387;28;20439;-84
2023/07/26 07:07:02;;;;;;;2.65;2.40;;;14.30;99.90;;;;;;4975819;28;20456;-85
2023/07/26 07:09:28;;;;;;;2.72;2.10;;;14.30;99.90;;;;;;4957572;28;20546;-84
2023/07/26 07:11:54;;;;;;;2.83;2.63;;;14.30;99.90;;;;;;4955543;28;20407;-84
2023/07/26 07:14:20;;;;;;;2.00;1.80;;;14.30;99.90;;;;;;4955803;28;20388;-83
2023/07/26 07:16:46;;;;;;;1.60;1.50;;;14.40;99.90;;;;;;4957991;28;20416;-84
2023/07/26 07:19:11;;;;;;;2.45;1.40;;;14.70;99.90;;;;;;4986988;28;20449;-84
2023/07/26 07:21:37;;;;;;;1.30;1.20;;;14.60;99.90;;;;;;4976445;28;20389;-83
2023/07/26 07:24:04;;;;;;;2.80;1.30;;;14.70;99.90;;;;;;4996787;28;20415;-84
2023/07/26 07:26:30;;;;;;;2.30;1.50;;;14.90;99.90;;;;;;4988762;28;20386;-82
2023/07/26 07:28:55;;;;;;;1.40;1.30;;;15.00;99.90;;;;;;5010380;28;20441;-84
2023/07/26 07:31:21;;;;;;;3.00;1.20;;;15.20;99.90;;;;;;4994950;28;20387;-82
2023/07/26 07:33:46;;;;;;;2.30;1.10;;;15.40;99.90;;;;;;5001548;28;20489;-83
2023/07/26 07:36:17;;;;;;;1.30;1.20;;;15.20;99.90;;;;;;4990189;28;20392;-88
2023/07/26 07:38:44;;;;;;;2.20;1.00;;;15.50;99.90;;;;;;4963959;28;20389;-87
2023/07/26 07:41:09;;;;;;;1.27;1.08;;;17.40;99.90;;;;;;4961697;28;20456;-86
2023/07/26 07:43:35;;;;;;;1.30;1.20;;;15.70;99.90;;;;;;4960217;28;20423;-86
2023/07/26 07:46:00;;;;;;;1.40;1.00;;;15.60;99.90;;;;;;4961291;28;20491;-86
2023/07/26 07:48:26;;;;;;;1.50;1.10;;;15.60;99.90;;;;;;4960550;28;20412;-86
2023/07/26 07:50:55;;;;;;;1.40;1.10;;;15.80;99.90;;;;;;4961463;28;20400;-87
2023/07/26 07:53:21;;;;;;;2.17;0.90;;;16.10;99.90;;;;;;4980517;28;20416;-86
2023/07/26 07:55:46;;;;;;;1.30;1.20;;;16.60;99.90;;;;;;4981145;28;20388;-86
2023/07/26 07:58:12;;;;;;;2.10;1.20;;;17.60;99.90;;;;;;4979419;28;20431;-86
2023/07/26 08:00:37;;;;;;;1.40;1.30;;;15.70;99.90;;;;;;4978629;28;20392;-86
2023/07/26 08:03:03;;;;;;;2.30;1.57;;;15.80;99.90;;;;;;4960450;28;20904;-86
2023/07/26 08:05:29;;;;;;;3.33;1.77;;;16.80;99.90;;;;;;4961308;28;20415;-85
2023/07/26 08:07:55;;;;;;;2.00;1.80;;;16.60;99.90;;;;;;4960559;28;20400;-87
2023/07/26 08:10:21;;;;;;;3.03;2.10;;;15.50;99.90;;;;;;4959537;28;20396;-87
2023/07/26 08:12:47;;;;;;;2.22;2.03;;;16.00;99.90;;;;;;4961970;28;20399;-87
2023/07/26 08:15:13;;;;;;;1.80;1.70;;;15.90;99.90;;;;;;4961669;28;20397;-86
2023/07/26 08:17:40;;;;;;;2.13;1.70;;;16.20;99.90;;;;;;4963248;28;20392;-86
2023/07/26 08:20:06;;;;;;;2.35;2.15;;;16.70;99.90;;;;;;4977824;28;20395;-86
2023/07/26 08:22:31;;;;;;;2.20;2.00;;;16.20;99.90;;;;;;4979910;28;20394;-87
2023/07/26 08:24:57;;;;;;;1.77;1.63;;;18.60;99.90;;;;;;4983617;28;20440;-86
2023/07/26 08:27:22;;;;;;;2.47;2.00;;;16.50;99.90;;;;;;4999889;28;20417;-86
2023/07/26 08:29:48;;;;;;;3.27;1.80;;;16.50;99.90;;;;;;4997986;28;20456;-87
2023/07/26 08:32:14;;;;;;;1.70;1.50;;;18.40;99.90;;;;;;4977330;28;20387;-86
2023/07/26 08:34:39;;;;;;;1.97;1.77;;;16.20;99.90;;;;;;4978078;28;20418;-87
2023/07/26 08:37:05;;;;;;;2.20;1.53;;;15.50;99.90;;;;;;4978821;28;20743;-86
2023/07/26 08:39:30;;;;;;;1.90;1.80;;;16.90;99.90;;;;;;4980539;28;20396;-86
2023/07/26 08:41:57;;;;;;;2.25;1.70;;;18.10;99.90;;;;;;4979963;28;20405;-85
2023/07/26 08:44:24;;;;;;;2.20;2.00;;;17.10;99.90;;;;;;4978936;28;20405;-87
2023/07/26 08:46:51;;;;;;;2.40;1.60;;;16.70;99.90;;;;;;4995886;28;20720;-86
2023/07/26 08:49:17;;;;;;;3.03;1.73;;;18.00;99.90;;;;;;4978727;28;20909;-87
2023/07/26 08:51:43;;;;;;;1.80;1.70;;;17.00;99.90;;;;;;4996388;28;20387;-86
2023/07/26 08:54:09;;;;;;;2.03;1.60;;;17.70;99.90;;;;;;4995600;28;20417;-87
2023/07/26 08:56:35;;;;;;;3.03;2.10;;;17.80;99.90;;;;;;4978790;28;20414;-86
2023/07/26 08:59:00;;;;;;;3.15;2.30;;;17.40;99.90;;;;;;4979273;28;20847;-86
2023/07/26 09:01:27;;;;;;;2.63;2.05;;;17.30;99.90;;;;;;4978804;28;20386;-86
2023/07/26 09:03:53;;;;;;;4.30;1.92;;;17.20;99.90;;;;;;4978262;28;20802;-86
2023/07/26 09:06:19;;;;;;;1.70;1.60;;;18.50;99.90;;;;;;4995141;28;20383;-87
2023/07/26 09:08:46;;;;;;;4.80;1.90;;;19.70;99.90;;;;;;4994528;28;20410;-87
2023/07/26 09:11:26;;;;;;;2.90;1.80;;;17.40;99.90;;;;;;4994899;28;20390;-87
2023/07/26 09:13:53;;;;;;;3.45;2.00;;;19.50;99.90;;;;;;4977167;28;20399;-87
2023/07/26 09:16:20;;;;;;;1.80;1.70;;;18.60;99.90;;;;;;4994413;28;20739;-87
2023/07/26 09:19:01;;;;;;;3.50;2.50;;;19.80;99.90;;;;;;4972789;28;20931;-87
2023/07/26 09:21:28;;;;;;;2.80;1.70;;;17.60;99.90;;;;;;4978621;28;20396;-87
2023/07/26 09:23:54;;;;;;;2.40;2.20;;;16.60;99.90;;;;;;4960240;28;20396;-87
2023/07/26 09:26:41;;;;;;;2.95;2.13;;;17.90;99.90;;;;;;4961400;28;20495;-87
2023/07/26 09:29:10;;;;;;;2.35;2.00;;;17.00;99.90;;;;;;4959207;28;20789;-86
2023/07/26 09:31:38;;;;;;;2.67;2.47;;;18.10;99.90;;;;;;4975608;28;20477;-87
2023/07/26 09:34:06;;;;;;;4.80;2.47;;;16.70;99.90;;;;;;4958427;28;20928;-85
2023/07/26 09:36:45;;;;;;;3.53;2.70;;;17.60;99.90;;;;;;4974525;28;20393;-87
2023/07/26 09:39:12;;;;;;;3.38;3.08;;;15.90;99.90;;;;;;4956774;28;20392;-86
2023/07/26 09:41:38;;;;;;;3.58;3.28;;;16.00;99.90;;;;;;4958286;28;20395;-86
2023/07/26 09:44:21;;;;;;;3.80;3.50;;;16.00;99.90;;;;;;4977078;28;20396;-85
2023/07/26 09:46:55;;;;;;;4.80;3.30;;;15.20;99.90;;;;;;4956136;28;20437;-86
2023/07/26 09:49:22;;;;;;;3.80;3.40;;;14.90;99.90;;;;;;4955477;28;20396;-86
2023/07/26 09:51:53;;;;;;;3.92;3.63;;;14.70;99.90;;;;;;4954385;28;20396;-86
2023/07/26 09:54:19;;;;;;;4.80;3.80;;;17.40;99.90;;;;;;4973365;28;20392;-85
2023/07/26 09:56:46;;;;;;;4.70;4.30;;;14.60;99.90;;;;;;4973191;28;20582;-85
2023/07/26 09:59:13;;;;;;;5.87;5.27;;;14.40;99.90;;;;;;4956040;28;20401;-84
2023/07/26 10:01:41;;;;;;;6.35;4.97;;;14.30;99.90;;;;;;4955789;28;20392;-85
2023/07/26 10:04:15;;;;;;;4.88;4.20;;;14.40;99.90;;;;;;4956532;28;20911;-85
2023/07/26 10:06:42;;;;;;;5.90;4.88;;;14.60;99.90;;;;;;4973938;28;20429;-84
2023/07/26 10:09:12;;;;;;;6.22;5.10;;;15.40;99.90;;;;;;4956271;28;20398;-85
2023/07/26 10:11:40;;;;;;;5.40;4.90;;;15.00;99.90;;;;;;4955156;28;20409;-85
2023/07/26 10:14:08;;;;;;;4.25;3.95;;;15.20;99.90;;;;;;4955832;28;20459;-85
2023/07/26 10:16:35;;;;;;;4.70;4.30;;;15.30;99.90;;;;;;4972788;28;20387;-85
2023/07/26 10:19:03;;;;;;;4.88;4.38;;;15.60;99.90;;;;;;4963772;28;20736;-86
2023/07/26 10:21:29;;;;;;;4.25;3.80;;;17.50;99.90;;;;;;4991707;28;20477;-86
2023/07/26 10:23:57;;;;;;;5.85;4.20;;;15.90;99.90;;;;;;4994850;28;20453;-86
2023/07/26 10:26:25;;;;;;;5.43;4.18;;;16.30;99.90;;;;;;4977879;28;20395;-85
2023/07/26 10:28:51;;;;;;;3.80;3.45;;;16.50;99.90;;;;;;4995108;28;20775;-85
2023/07/26 10:31:23;;;;;;;3.50;3.20;;;17.30;99.90;;;;;;4975407;28;20442;-86
2023/07/26 10:33:49;;;;;;;3.63;3.20;;;16.50;99.90;;;;;;4981351;28;20404;-85
2023/07/26 10:36:15;;;;;;;3.28;3.00;;;19.10;99.90;;;;;;4972857;28;20387;-86
2023/07/26 10:38:46;;;;;;;3.05;2.80;;;19.20;99.90;;;;;;4955107;28;20408;-86
2023/07/26 10:41:26;;;;;;;2.90;2.70;;;18.40;99.90;;;;;;4972709;28;20780;-85
2023/07/26 10:44:21;;;;;;;2.88;2.67;;;18.50;99.90;;;;;;4972975;28;20427;-86
2023/07/26 10:46:48;;;;;;;2.90;2.25;;;17.50;99.90;;;;;;4965455;28;20411;-87
2023/07/26 10:49:28;;;;;;;3.15;2.50;;;17.60;99.90;;;;;;4981184;28;20391;-87
2023/07/26 10:51:58;;;;;;;3.38;2.67;;;17.40;99.90;;;;;;4979514;28;20396;-87
2023/07/26 10:54:36;;;;;;;3.27;2.40;;;17.60;99.90;;;;;;4960260;28;20845;-87
2023/07/26 10:57:28;;;;;;;2.72;2.05;;;17.80;99.90;;;;;;4977079;28;20840;-87
2023/07/26 11:00:04;;;;;;;1.90;1.70;;;17.60;99.90;;;;;;4958733;28;20887;-87
2023/07/26 11:02:44;;;;;;;3.15;2.20;;;19.90;99.90;;;;;;4956853;28;20388;-88
2023/07/26 11:05:21;;;;;;;2.50;1.95;;;18.90;99.90;;;;;;4956371;28;20775;-87
2023/07/26 11:08:00;;;;;;;2.00;1.80;;;20.40;99.90;;;;;;4956104;28;20420;-88
2023/07/26 11:10:29;;;;;;;3.30;2.10;;;17.60;99.90;;;;;;4957227;28;20420;-87
2023/07/26 11:13:07;;;;;;;2.90;2.05;;;17.70;99.90;;;;;;4968283;28;20976;-88
2023/07/26 11:15:34;;;;;;;2.20;2.00;;;19.90;99.90;;;;;;4956659;28;20388;-87
2023/07/26 11:17:59;;;;;;;3.00;1.85;;;19.40;99.90;;;;;;4957004;28;20392;-87
2023/07/26 11:20:25;;;;;;;2.22;1.70;;;17.30;99.90;;;;;;4977187;28;20405;-90
2023/07/26 11:22:51;;;;;;;2.78;2.10;;;17.60;99.90;;;;;;4976235;28;20401;-87
2023/07/26 11:25:17;;;;;;;2.42;2.10;;;17.70;99.90;;;;;;4980954;28;20444;-88
2023/07/26 11:27:44;;;;;;;3.05;2.00;;;17.60;99.90;;;;;;4982600;28;20410;-87
2023/07/26 11:30:17;;;;;;;2.38;2.17;;;17.30;99.90;;;;;;4983039;28;20397;-87
2023/07/26 11:32:50;;;;;;;2.10;1.90;;;18.30;99.90;;;;;;4998280;28;20776;-87
2023/07/26 11:35:19;;;;;;;2.10;1.90;;;20.40;99.90;;;;;;4980563;28;20392;-89
2023/07/26 11:37:56;;;;;;;2.83;2.13;;;17.40;99.90;;;;;;4962375;28;20462;-86
2023/07/26 11:40:22;;;;;;;2.30;2.10;;;19.40;99.90;;;;;;4967294;28;20398;-87
2023/07/26 11:42:49;;;;;;;2.85;2.20;;;17.70;99.90;;;;;;4963601;28;20396;-88
2023/07/26 11:45:16;;;;;;;2.40;2.03;;;17.80;99.90;;;;;;4961696;28;20396;-89
2023/07/26 11:47:41;;;;;;;2.40;2.20;;;19.80;99.90;;;;;;4978689;28;20422;-88
2023/07/26 11:50:07;;;;;;;3.70;2.30;;;19.90;99.90;;;;;;4960232;28;20777;-87
2023/07/26 11:52:33;;;;;;;2.83;2.22;;;17.90;99.90;;;;;;4961346;28;20398;-87
2023/07/26 11:55:04;;;;;;;3.75;2.10;;;18.00;99.90;;;;;;4981084;28;20826;-86
2023/07/26 11:57:30;;;;;;;3.00;2.40;;;18.40;99.90;;;;;;4962906;28;20424;-85
2023/07/26 12:00:03;;;;;;;3.57;2.60;;;19.40;99.90;;;;;;4961849;28;20399;-87
2023/07/26 12:02:29;;;;;;;2.92;2.40;;;19.90;99.90;;;;;;4979356;28;20392;-87
2023/07/26 12:05:18;;;;;;;3.30;2.30;;;19.90;99.90;;;;;;4983285;28;20400;-87
2023/07/26 12:07:52;;;;;;;2.20;2.00;;;18.20;99.90;;;;;;4964081;28;20416;-87
2023/07/26 12:10:29;;;;;;;2.70;2.30;;;18.90;99.90;;;;;;4963549;28;20397;-87
2023/07/26 12:12:56;;;;;;;3.70;2.30;;;18.20;99.90;;;;;;4962739;28;20474;-87
2023/07/26 12:15:23;;;;;;;2.15;1.95;;;18.80;99.90;;;;;;4962342;28;20784;-87
2023/07/26 12:18:00;;;;;;;2.67;2.30;;;20.90;99.90;;;;;;4958618;28;20617;-87
2023/07/26 12:20:26;;;;;;;2.78;1.83;;;19.70;99.90;;;;;;4959316;28;20412;-87
2023/07/26 12:22:55;;;;;;;3.20;2.00;;;19.90;99.90;;;;;;4983403;28;20460;-88
2023/07/26 12:25:33;;;;;;;3.80;2.10;;;18.70;99.90;;;;;;4966080;28;20395;-87
2023/07/26 12:27:58;;;;;;;2.30;1.63;;;21.10;99.90;;;;;;4972034;28;20418;-88
2023/07/26 12:30:25;;;;;;;1.70;1.60;;;19.80;99.90;;;;;;4988229;28;20469;-85
2023/07/26 12:33:09;;;;;;;3.40;2.03;;;19.90;99.90;;;;;;4961099;28;20753;-87
2023/07/26 12:35:35;;;;;;;2.00;1.80;;;19.80;99.90;;;;;;4967909;28;20401;-85
2023/07/26 12:38:12;;;;;;;2.40;2.00;;;20.60;99.90;;;;;;4967644;28;20408;-87
2023/07/26 12:40:39;;;;;;;1.70;1.60;;;20.30;99.90;;;;;;4970676;28;20390;-85
2023/07/26 12:43:20;;;;;;;2.40;1.70;;;21.50;99.90;;;;;;4992985;28;20387;-88
2023/07/26 12:45:45;;;;;;;2.60;1.70;;;21.10;99.90;;;;;;5017265;28;20378;-89
2023/07/26 12:48:11;;;;;;;2.53;2.00;;;19.70;99.90;;;;;;4986142;28;20452;-89